Time;durP1;ratioP1;P1;durP2;ratioP2;P2;SDS_P1;SDS_P2;PMS_P1;PMS_P2;Temp;Humidity;BMP_temperature;BMP_pressure;BME280_temperature;BME280_humidity;BME280_pressure;Samples;Min_cycle;Max_cycle;Signal;HPM_P1;HPM_P2
2021/07/26 00:02:17;;;;;;;2.53;2.22;;;21.00;77.50;;;;;;4968461;28;20425;-80
2021/07/26 00:04:43;;;;;;;4.07;3.50;;;21.10;77.30;;;;;;4970578;28;20015;-80
2021/07/26 00:07:08;;;;;;;4.25;3.35;;;21.00;77.30;;;;;;4969674;28;20427;-80
2021/07/26 00:09:35;;;;;;;4.60;3.30;;;21.00;77.40;;;;;;4969696;28;20366;-80
2021/07/26 00:12:01;;;;;;;4.40;3.70;;;21.00;77.30;;;;;;4973146;28;20038;-80
2021/07/26 00:14:26;;;;;;;3.42;2.55;;;21.00;77.40;;;;;;4973483;28;20111;-81
2021/07/26 00:16:52;;;;;;;4.55;2.80;;;21.00;77.20;;;;;;4971951;28;20032;-80
2021/07/26 00:19:17;;;;;;;5.03;2.78;;;21.00;77.00;;;;;;4973661;28;20031;-80
2021/07/26 00:21:43;;;;;;;3.85;2.90;;;21.00;76.80;;;;;;4972769;28;20125;-81
2021/07/26 00:24:08;;;;;;;3.30;2.80;;;21.00;76.50;;;;;;4973914;28;20033;-80
2021/07/26 00:26:34;;;;;;;4.00;3.13;;;21.00;76.50;;;;;;4974148;28;20061;-79
2021/07/26 00:28:59;;;;;;;5.20;2.95;;;21.00;76.40;;;;;;4969974;28;20577;-79
2021/07/26 00:31:25;;;;;;;3.92;2.78;;;21.00;76.30;;;;;;4972578;28;20428;-79
2021/07/26 00:34:14;;;;;;;3.13;2.72;;;21.00;76.20;;;;;;4972506;28;20039;-79
2021/07/26 00:36:43;;;;;;;4.47;2.47;;;21.10;76.10;;;;;;4971251;28;20037;-80
2021/07/26 00:39:10;;;;;;;3.88;2.72;;;21.10;75.80;;;;;;4959092;28;20173;-79
2021/07/26 00:41:36;;;;;;;4.15;2.85;;;21.10;75.80;;;;;;4973366;28;20489;-79
2021/07/26 00:44:03;;;;;;;4.03;2.53;;;21.10;75.70;;;;;;4973132;28;20031;-80
2021/07/26 00:46:29;;;;;;;3.33;2.63;;;21.10;75.50;;;;;;4973347;28;20026;-80
2021/07/26 00:48:55;;;;;;;3.28;2.63;;;21.10;75.30;;;;;;4972533;28;20537;-79
2021/07/26 00:51:21;;;;;;;3.58;2.60;;;21.10;75.30;;;;;;4972899;28;20027;-79
2021/07/26 00:53:47;;;;;;;3.65;2.72;;;21.10;75.20;;;;;;4971912;28;20060;-79
2021/07/26 00:56:14;;;;;;;3.40;2.45;;;21.10;75.20;;;;;;4972892;28;20019;-79
2021/07/26 00:58:39;;;;;;;2.67;2.08;;;21.10;75.00;;;;;;4971737;28;20037;-80
2021/07/26 01:01:05;;;;;;;3.38;2.50;;;21.10;75.00;;;;;;4972394;28;20027;-79
2021/07/26 01:03:30;;;;;;;3.42;2.80;;;21.00;74.80;;;;;;4973146;28;20027;-79
2021/07/26 01:05:57;;;;;;;4.30;2.70;;;21.10;74.90;;;;;;4972158;28;20038;-78
2021/07/26 01:08:22;;;;;;;3.30;2.55;;;21.00;74.80;;;;;;4969826;28;20351;-78
2021/07/26 01:10:48;;;;;;;3.00;2.33;;;21.00;74.90;;;;;;4969862;28;20031;-79
2021/07/26 01:13:13;;;;;;;2.65;2.20;;;21.00;74.80;;;;;;4972224;28;20505;-79
2021/07/26 01:15:39;;;;;;;2.85;2.40;;;21.00;74.80;;;;;;4971454;28;20477;-79
2021/07/26 01:18:21;;;;;;;2.80;2.50;;;21.00;74.80;;;;;;4971550;28;20765;-79
2021/07/26 01:20:48;;;;;;;;;;;20.90;74.70;;;;;;4966912;28;20438;-80
2021/07/26 01:23:14;;;;;;;3.60;2.25;;;20.90;74.60;;;;;;4972701;28;19913;-79
2021/07/26 01:25:39;;;;;;;3.38;2.80;;;20.90;74.60;;;;;;4973135;28;20034;-79
2021/07/26 01:28:05;;;;;;;2.75;2.50;;;20.80;74.60;;;;;;4970929;28;20061;-79
2021/07/26 01:30:33;;;;;;;2.65;2.28;;;20.80;74.60;;;;;;4972516;28;20031;-78
2021/07/26 01:32:59;;;;;;;2.40;2.10;;;20.70;74.80;;;;;;4962790;28;20102;-79
2021/07/26 01:35:24;;;;;;;4.45;2.70;;;20.70;74.90;;;;;;4973095;28;20533;-79
2021/07/26 01:37:50;;;;;;;2.78;2.45;;;20.70;74.90;;;;;;4972124;28;20039;-79
2021/07/26 01:40:16;;;;;;;4.03;2.42;;;20.60;74.90;;;;;;4972696;28;20034;-79
2021/07/26 01:42:42;;;;;;;2.60;2.30;;;20.70;74.80;;;;;;4971330;28;20134;-79
2021/07/26 01:45:09;;;;;;;3.10;2.50;;;20.70;74.80;;;;;;4971686;28;20023;-79
2021/07/26 01:47:46;;;;;;;4.20;2.75;;;20.70;74.70;;;;;;4971322;28;20047;-79
2021/07/26 01:50:14;;;;;;;3.03;2.15;;;20.60;74.80;;;;;;4972140;28;20025;-79
2021/07/26 01:52:40;;;;;;;2.58;2.25;;;20.60;74.80;;;;;;4972643;28;20085;-79
2021/07/26 01:55:06;;;;;;;2.65;2.38;;;20.60;74.80;;;;;;4971894;28;20485;-80
2021/07/26 01:57:32;;;;;;;3.45;2.53;;;20.50;74.70;;;;;;4970278;28;20046;-80
2021/07/26 01:59:57;;;;;;;2.45;2.25;;;20.50;74.70;;;;;;4971974;28;20069;-79
2021/07/26 02:02:24;;;;;;;2.58;2.17;;;20.60;74.70;;;;;;4969783;28;20050;-79
2021/07/26 02:04:50;;;;;;;3.40;2.38;;;20.50;74.80;;;;;;4972020;28;20446;-79
2021/07/26 02:07:16;;;;;;;4.35;2.40;;;20.50;74.80;;;;;;4970384;28;20057;-79
2021/07/26 02:09:41;;;;;;;2.78;2.13;;;20.50;74.90;;;;;;4971623;28;20497;-79
2021/07/26 02:12:07;;;;;;;3.63;2.88;;;20.40;74.90;;;;;;4971232;28;20081;-79
2021/07/26 02:14:33;;;;;;;3.55;2.65;;;20.40;75.00;;;;;;4970986;28;20571;-79
2021/07/26 02:16:58;;;;;;;3.13;2.50;;;20.40;75.00;;;;;;4971046;28;20070;-79
2021/07/26 02:19:24;;;;;;;3.42;2.90;;;20.40;75.00;;;;;;4970791;28;20057;-79
2021/07/26 02:21:51;;;;;;;3.42;2.45;;;20.40;75.10;;;;;;4972094;28;20114;-79
2021/07/26 02:24:17;;;;;;;3.88;2.90;;;20.40;75.10;;;;;;4971188;28;20025;-79
2021/07/26 02:26:42;;;;;;;3.13;2.45;;;20.40;75.30;;;;;;4963656;28;20038;-79
2021/07/26 02:29:08;;;;;;;3.10;2.60;;;20.40;75.30;;;;;;4968936;28;20113;-79
2021/07/26 02:31:34;;;;;;;5.05;3.30;;;20.40;75.40;;;;;;4963300;28;20038;-79
2021/07/26 02:33:59;;;;;;;4.00;2.75;;;20.40;75.60;;;;;;4970451;28;20026;-79
2021/07/26 02:36:25;;;;;;;3.88;2.90;;;20.30;75.50;;;;;;4969431;28;20425;-79
2021/07/26 02:38:50;;;;;;;3.60;2.70;;;20.30;75.60;;;;;;4969649;28;20066;-79
2021/07/26 02:41:16;;;;;;;4.28;2.95;;;20.30;75.60;;;;;;4970090;28;20084;-80
2021/07/26 02:43:42;;;;;;;5.65;3.20;;;20.40;75.60;;;;;;4970599;28;20037;-79
2021/07/26 02:46:09;;;;;;;3.33;2.75;;;20.40;75.60;;;;;;4971397;28;20652;-80
2021/07/26 02:48:36;;;;;;;3.95;3.13;;;20.40;75.60;;;;;;4970415;28;20019;-80
2021/07/26 02:51:02;;;;;;;4.57;3.15;;;20.40;75.60;;;;;;4966271;28;20033;-79
2021/07/26 02:53:27;;;;;;;4.90;3.05;;;20.40;75.60;;;;;;4971260;28;20054;-80
2021/07/26 02:55:53;;;;;;;3.72;2.88;;;20.30;75.60;;;;;;4970781;28;20026;-80
2021/07/26 02:58:20;;;;;;;3.70;3.00;;;20.40;75.60;;;;;;4970489;28;20082;-80
2021/07/26 03:00:46;;;;;;;3.25;2.80;;;20.30;75.60;;;;;;4968588;28;20026;-80
2021/07/26 03:03:12;;;;;;;3.17;2.60;;;20.30;75.70;;;;;;4971558;28;20027;-80
2021/07/26 03:05:37;;;;;;;4.65;2.58;;;20.30;75.80;;;;;;4970939;28;20015;-80
2021/07/26 03:08:03;;;;;;;2.97;2.65;;;20.30;75.80;;;;;;4969442;28;20444;-79
2021/07/26 03:10:29;;;;;;;4.50;2.67;;;20.30;75.90;;;;;;4974912;28;20042;-79
2021/07/26 03:12:54;;;;;;;3.35;2.88;;;20.20;75.80;;;;;;4970436;28;20030;-79
2021/07/26 03:15:21;;;;;;;3.25;2.80;;;20.20;75.70;;;;;;4964808;28;20492;-79
2021/07/26 03:17:47;;;;;;;3.40;2.83;;;20.20;75.70;;;;;;4970488;28;20066;-79
2021/07/26 03:20:13;;;;;;;3.85;2.72;;;20.30;75.70;;;;;;4970872;28;20034;-79
2021/07/26 03:23:01;;;;;;;4.57;3.50;;;20.20;75.60;;;;;;4970496;28;20058;-80
2021/07/26 03:25:32;;;;;;;3.10;2.60;;;20.20;75.80;;;;;;4964463;28;20153;-79
2021/07/26 03:27:59;;;;;;;3.35;2.55;;;20.20;75.90;;;;;;4971183;28;20385;-79
2021/07/26 03:30:25;;;;;;;3.47;2.55;;;20.20;75.90;;;;;;4970656;28;20354;-79
2021/07/26 03:32:51;;;;;;;3.53;2.72;;;20.30;75.90;;;;;;4967560;28;20033;-80
2021/07/26 03:35:18;;;;;;;4.32;2.65;;;20.20;75.80;;;;;;4970645;28;20030;-80
2021/07/26 03:37:44;;;;;;;2.85;2.60;;;20.20;75.90;;;;;;4965457;28;20030;-80
2021/07/26 03:40:10;;;;;;;3.40;2.60;;;20.20;76.00;;;;;;4976240;28;20015;-80
2021/07/26 03:42:37;;;;;;;3.63;2.63;;;20.20;76.00;;;;;;4964850;28;20030;-77
2021/07/26 03:45:04;;;;;;;3.35;2.70;;;20.20;75.90;;;;;;4969459;28;20030;-77
2021/07/26 03:47:30;;;;;;;5.30;2.78;;;20.20;75.90;;;;;;4976138;28;20030;-78
2021/07/26 03:49:56;;;;;;;2.35;2.15;;;20.20;75.80;;;;;;4975347;28;20033;-77
2021/07/26 03:52:21;;;;;;;4.28;2.33;;;20.20;75.80;;;;;;4969934;28;20031;-78
2021/07/26 03:54:47;;;;;;;3.47;2.70;;;20.10;75.80;;;;;;4985010;28;20386;-78
2021/07/26 03:57:12;;;;;;;3.40;2.30;;;20.10;75.90;;;;;;4983841;28;20120;-78
2021/07/26 03:59:38;;;;;;;3.35;2.60;;;20.10;75.90;;;;;;4985143;28;20034;-78
2021/07/26 04:02:04;;;;;;;2.95;2.65;;;20.00;75.90;;;;;;4976246;28;20058;-79
2021/07/26 04:04:29;;;;;;;3.50;2.75;;;20.10;76.50;;;;;;4982249;28;20500;-78
2021/07/26 04:06:59;;;;;;;3.20;2.65;;;20.10;75.80;;;;;;4983223;28;20026;-80
2021/07/26 04:09:28;;;;;;;2.78;2.50;;;20.10;75.90;;;;;;4976528;28;20030;-78
2021/07/26 04:12:03;;;;;;;2.80;2.38;;;20.00;75.90;;;;;;4969703;28;20027;-77
2021/07/26 04:14:31;;;;;;;3.20;2.58;;;20.00;76.20;;;;;;4981954;28;20023;-80
2021/07/26 04:16:56;;;;;;;3.15;2.53;;;20.00;76.20;;;;;;4980767;28;20043;-78
2021/07/26 04:19:22;;;;;;;4.00;2.67;;;20.00;76.20;;;;;;4971335;28;20042;-78
2021/07/26 04:21:48;;;;;;;3.67;3.17;;;20.00;76.20;;;;;;4973205;28;20053;-79
2021/07/26 04:24:13;;;;;;;3.80;3.00;;;20.00;76.30;;;;;;4975258;28;20481;-80
2021/07/26 04:26:39;;;;;;;2.88;2.10;;;20.00;76.30;;;;;;4979596;28;20086;-79
2021/07/26 04:29:04;;;;;;;4.20;2.70;;;20.00;76.30;;;;;;4975934;28;20039;-78
2021/07/26 04:31:30;;;;;;;5.05;2.80;;;20.00;76.20;;;;;;4977153;28;20743;-79
2021/07/26 04:33:55;;;;;;;2.70;2.38;;;20.00;76.30;;;;;;4978318;28;20109;-80
2021/07/26 04:36:21;;;;;;;3.08;2.33;;;20.00;76.30;;;;;;4975947;28;20384;-79
2021/07/26 04:38:46;;;;;;;3.20;2.60;;;20.00;76.40;;;;;;4972807;28;20038;-79
2021/07/26 04:41:12;;;;;;;4.00;2.88;;;20.10;76.30;;;;;;4979619;28;20026;-79
2021/07/26 04:43:38;;;;;;;2.88;2.47;;;20.00;76.40;;;;;;4977114;28;20109;-79
2021/07/26 04:46:05;;;;;;;4.07;2.50;;;20.00;76.40;;;;;;4974643;28;20111;-79
2021/07/26 04:48:30;;;;;;;2.85;2.25;;;20.00;76.40;;;;;;4973150;28;20489;-79
2021/07/26 04:50:56;;;;;;;3.72;2.70;;;20.10;76.50;;;;;;4977062;28;20022;-79
2021/07/26 04:53:21;;;;;;;4.32;2.40;;;20.10;76.50;;;;;;4975703;28;20027;-78
2021/07/26 04:55:47;;;;;;;5.22;2.97;;;20.10;76.40;;;;;;4974555;28;20065;-79
2021/07/26 04:58:12;;;;;;;2.90;2.47;;;20.00;76.50;;;;;;4984382;28;20482;-80
2021/07/26 05:00:38;;;;;;;2.20;2.00;;;20.00;76.60;;;;;;4978174;28;20058;-79
2021/07/26 05:03:07;;;;;;;4.10;2.30;;;20.10;76.60;;;;;;4974792;28;20470;-78
2021/07/26 05:05:35;;;;;;;3.80;3.20;;;20.00;76.70;;;;;;4971500;28;20444;-77
2021/07/26 05:08:01;;;;;;;3.65;2.78;;;20.00;77.20;;;;;;4968941;28;20039;-78
2021/07/26 05:10:27;;;;;;;3.70;2.85;;;20.00;77.40;;;;;;4969028;28;20121;-78
2021/07/26 05:12:52;;;;;;;3.13;1.95;;;20.10;77.50;;;;;;4978140;28;20521;-77
2021/07/26 05:15:18;;;;;;;3.22;2.50;;;20.10;77.30;;;;;;4975212;28;20026;-78
2021/07/26 05:17:43;;;;;;;4.43;2.83;;;20.20;77.30;;;;;;4973535;28;20121;-77
2021/07/26 05:20:09;;;;;;;3.92;2.90;;;20.60;76.80;;;;;;4974471;28;20105;-79
2021/07/26 05:22:37;;;;;;;5.32;3.33;;;21.10;75.50;;;;;;4974564;28;20034;-78
2021/07/26 05:25:02;;;;;;;3.20;2.22;;;21.10;74.40;;;;;;4969951;28;20033;-78
2021/07/26 05:27:28;;;;;;;3.28;2.80;;;21.40;73.90;;;;;;4973264;28;20118;-79
2021/07/26 05:29:53;;;;;;;3.55;2.10;;;21.90;72.80;;;;;;4972468;28;20096;-76
2021/07/26 05:32:19;;;;;;;4.97;2.70;;;22.70;71.80;;;;;;4970797;28;20027;-76
2021/07/26 05:34:46;;;;;;;4.60;3.22;;;23.20;68.90;;;;;;4974281;28;20023;-75
2021/07/26 05:37:12;;;;;;;3.78;2.30;;;23.20;68.00;;;;;;4976147;28;20498;-77
2021/07/26 05:39:37;;;;;;;4.47;2.60;;;23.60;67.80;;;;;;4982783;28;20038;-75
2021/07/26 05:42:03;;;;;;;3.53;2.65;;;24.20;66.10;;;;;;4978305;28;20034;-76
2021/07/26 05:44:29;;;;;;;2.95;2.42;;;24.80;64.60;;;;;;4973382;28;20014;-77
2021/07/26 05:46:54;;;;;;;2.60;2.10;;;25.40;63.00;;;;;;4974823;28;20153;-75
2021/07/26 05:49:20;;;;;;;3.67;2.30;;;25.40;62.40;;;;;;4973258;28;20030;-76
2021/07/26 05:51:46;;;;;;;4.05;2.50;;;25.30;62.30;;;;;;4975727;28;20027;-76
2021/07/26 05:54:11;;;;;;;3.25;2.78;;;25.10;62.70;;;;;;4974292;28;21593;-76
2021/07/26 05:56:45;;;;;;;3.25;2.53;;;24.70;63.10;;;;;;4972880;28;20389;-77
2021/07/26 05:59:11;;;;;;;3.10;2.30;;;24.50;64.10;;;;;;4970757;28;20037;-79
2021/07/26 06:01:58;;;;;;;3.30;2.53;;;24.80;63.70;;;;;;4974285;28;20027;-79
2021/07/26 06:04:24;;;;;;;4.25;3.00;;;25.40;62.40;;;;;;4967663;28;20086;-76
2021/07/26 06:06:52;;;;;;;2.88;2.50;;;25.80;60.80;;;;;;4973233;28;20050;-78
2021/07/26 06:09:21;;;;;;;5.90;2.90;;;25.90;60.20;;;;;;4973065;28;20094;-78
2021/07/26 06:11:47;;;;;;;3.10;2.38;;;25.80;60.10;;;;;;4980314;28;20110;-79
2021/07/26 06:14:13;;;;;;;4.82;2.80;;;26.20;59.80;;;;;;4970563;28;20125;-79
2021/07/26 06:16:43;;;;;;;4.13;2.67;;;26.70;58.90;;;;;;4984678;28;20034;-78
2021/07/26 06:19:10;;;;;;;3.03;2.20;;;27.00;58.10;;;;;;4973472;28;20090;-78
2021/07/26 06:21:40;;;;;;;4.20;3.20;;;27.10;57.90;;;;;;4973143;28;20458;-79
2021/07/26 06:24:06;;;;;;;3.30;2.60;;;26.80;57.40;;;;;;4982507;28;20042;-78
2021/07/26 06:26:31;;;;;;;3.25;2.30;;;26.80;57.90;;;;;;4975842;28;20027;-77
2021/07/26 06:28:57;;;;;;;3.47;2.10;;;27.00;57.70;;;;;;4980538;28;20397;-78
2021/07/26 06:31:22;;;;;;;3.58;2.80;;;26.50;58.10;;;;;;4978034;28;20051;-78
2021/07/26 06:33:48;;;;;;;3.13;2.33;;;25.90;59.40;;;;;;4968523;28;20039;-77
2021/07/26 06:36:13;;;;;;;4.22;2.85;;;25.10;60.90;;;;;;4971649;28;20027;-77
2021/07/26 06:38:39;;;;;;;3.88;2.80;;;24.40;62.60;;;;;;4972192;28;20079;-77
2021/07/26 06:41:06;;;;;;;4.35;2.85;;;23.80;64.50;;;;;;4971634;28;20031;-77
2021/07/26 06:43:32;;;;;;;4.22;3.47;;;23.50;65.80;;;;;;4970813;28;20026;-77
2021/07/26 06:45:57;;;;;;;4.45;2.90;;;23.00;66.60;;;;;;4971137;28;20034;-78
2021/07/26 06:48:24;;;;;;;6.15;4.30;;;22.60;67.70;;;;;;4976439;28;20117;-78
2021/07/26 06:50:50;;;;;;;8.02;4.60;;;22.30;68.70;;;;;;4969678;28;20031;-78
2021/07/26 06:53:16;;;;;;;4.50;3.83;;;21.90;69.60;;;;;;4968445;28;20098;-78
2021/07/26 06:55:41;;;;;;;5.45;4.18;;;21.80;70.40;;;;;;4966849;28;20022;-78
2021/07/26 06:58:07;;;;;;;3.88;2.72;;;21.60;71.10;;;;;;4969560;28;20045;-78
2021/07/26 07:00:33;;;;;;;4.25;2.80;;;21.50;71.50;;;;;;4969831;28;20018;-78
2021/07/26 07:02:59;;;;;;;4.75;3.10;;;21.50;71.80;;;;;;4972274;28;20386;-78
2021/07/26 07:05:24;;;;;;;4.43;3.22;;;21.60;72.10;;;;;;4975987;28;20124;-78
2021/07/26 07:07:50;;;;;;;5.38;3.50;;;21.80;71.80;;;;;;4963104;28;20035;-78
2021/07/26 07:10:15;;;;;;;7.82;4.80;;;21.80;71.50;;;;;;4966292;28;20023;-78
2021/07/26 07:12:41;;;;;;;5.22;4.53;;;21.90;71.40;;;;;;4975361;28;20042;-77
2021/07/26 07:15:08;;;;;;;6.07;4.57;;;21.80;71.50;;;;;;4974175;28;20014;-77
2021/07/26 07:17:34;;;;;;;5.82;4.22;;;21.70;71.80;;;;;;4969710;28;20031;-77
2021/07/26 07:19:59;;;;;;;4.18;2.60;;;21.50;72.10;;;;;;4982916;28;20027;-77
2021/07/26 07:22:25;;;;;;;4.75;3.58;;;21.50;72.20;;;;;;4974735;28;20053;-78
2021/07/26 07:24:51;;;;;;;5.85;4.07;;;21.60;72.20;;;;;;4981360;28;20520;-78
2021/07/26 07:27:16;;;;;;;5.30;4.28;;;21.60;72.20;;;;;;4977846;28;20023;-77
2021/07/26 07:29:42;;;;;;;3.60;2.65;;;21.70;72.40;;;;;;4980505;28;20037;-77
2021/07/26 07:32:12;;;;;;;3.80;2.78;;;21.70;72.40;;;;;;4975294;28;20050;-78
2021/07/26 07:37:12;;;;;;;4.78;3.15;;;22.00;71.90;;;;;;5281884;23;20054;-76
2021/07/26 07:39:38;;;;;;;6.28;4.30;;;22.10;71.90;;;;;;4989598;28;20430;-76
2021/07/26 07:42:04;;;;;;;3.85;3.30;;;22.20;71.70;;;;;;4995216;28;20034;-76
2021/07/26 07:44:32;;;;;;;5.95;3.72;;;22.20;71.70;;;;;;4995863;28;20030;-76
2021/07/26 07:46:59;;;;;;;4.00;3.30;;;22.30;71.90;;;;;;4979701;28;20030;-76
2021/07/26 07:49:25;;;;;;;3.70;2.90;;;22.20;72.00;;;;;;4974913;28;20071;-76
2021/07/26 07:51:50;;;;;;;3.33;2.95;;;22.20;72.10;;;;;;4976410;28;20039;-77
2021/07/26 07:54:16;;;;;;;4.95;3.28;;;22.30;72.00;;;;;;4976022;28;20125;-76
2021/07/26 07:56:46;;;;;;;8.07;4.32;;;22.30;71.70;;;;;;4975517;28;20030;-76
2021/07/26 07:59:12;;;;;;;4.55;3.78;;;22.20;71.60;;;;;;4974751;28;20043;-76
2021/07/26 08:01:37;;;;;;;4.53;3.53;;;22.10;71.70;;;;;;4976112;28;20034;-76
2021/07/26 08:04:03;;;;;;;4.80;3.40;;;22.10;71.80;;;;;;4975771;28;20031;-76
2021/07/26 08:06:29;;;;;;;6.47;3.95;;;22.10;71.80;;;;;;4973591;28;20105;-76
2021/07/26 08:08:55;;;;;;;5.72;4.10;;;22.10;71.70;;;;;;4975957;28;20019;-76
2021/07/26 08:11:20;;;;;;;4.32;3.50;;;22.10;71.70;;;;;;4974282;28;20389;-75
2021/07/26 08:13:46;;;;;;;6.93;4.35;;;22.10;71.70;;;;;;4975693;28;20477;-76
2021/07/26 08:16:11;;;;;;;6.68;5.07;;;22.10;71.50;;;;;;4975036;28;20027;-76
2021/07/26 08:18:37;;;;;;;5.82;4.35;;;22.10;71.60;;;;;;4975067;28;20050;-76
2021/07/26 08:21:02;;;;;;;6.13;4.70;;;22.00;71.60;;;;;;4974228;28;20034;-76
2021/07/26 08:23:28;;;;;;;3.72;3.03;;;22.00;72.40;;;;;;4975636;28;20023;-76
2021/07/26 08:25:54;;;;;;;2.60;2.40;;;22.10;71.90;;;;;;4973704;28;20027;-76
2021/07/26 08:28:19;;;;;;;4.10;3.35;;;22.20;71.50;;;;;;4975210;28;20393;-76
2021/07/26 08:30:45;;;;;;;3.90;2.97;;;22.20;71.20;;;;;;4974113;28;20078;-76
2021/07/26 08:33:11;;;;;;;3.70;2.85;;;22.30;71.20;;;;;;4975220;28;20030;-76
2021/07/26 08:35:37;;;;;;;4.00;2.60;;;22.40;70.80;;;;;;4974119;28;20023;-76
2021/07/26 08:38:03;;;;;;;3.60;2.72;;;22.50;70.60;;;;;;4974553;28;20039;-77
2021/07/26 08:40:31;;;;;;;4.05;2.80;;;22.50;70.30;;;;;;4975114;28;20030;-76
2021/07/26 08:43:03;;;;;;;3.85;2.88;;;22.60;70.10;;;;;;4975336;28;20042;-76
2021/07/26 08:45:29;;;;;;;5.47;3.63;;;22.60;70.10;;;;;;4975169;28;20046;-76
2021/07/26 08:47:58;;;;;;;3.17;2.50;;;22.50;69.90;;;;;;4974922;28;20477;-76
2021/07/26 08:50:24;;;;;;;3.47;2.47;;;22.50;70.00;;;;;;4973798;28;20040;-76
2021/07/26 08:52:49;;;;;;;4.38;3.08;;;22.60;70.00;;;;;;4975060;28;20026;-76
2021/07/26 08:55:19;;;;;;;4.60;3.30;;;22.70;69.90;;;;;;4974991;28;20033;-76
2021/07/26 08:57:46;;;;;;;3.83;2.80;;;22.70;69.60;;;;;;4973140;28;20038;-76
2021/07/26 09:00:14;;;;;;;4.63;2.88;;;22.80;69.50;;;;;;4974924;28;20019;-76
2021/07/26 09:02:40;;;;;;;5.32;4.18;;;22.70;69.50;;;;;;4974798;28;20026;-76
2021/07/26 09:05:07;;;;;;;5.90;4.25;;;22.70;69.30;;;;;;4973236;28;20070;-76
2021/07/26 09:07:37;;;;;;;3.85;2.70;;;22.60;69.10;;;;;;4973867;28;20034;-76
2021/07/26 09:10:19;;;;;;;4.68;3.85;;;22.80;69.50;;;;;;4974884;28;20026;-77
2021/07/26 09:12:48;;;;;;;4.43;2.72;;;22.80;69.10;;;;;;4974744;28;20030;-77
2021/07/26 09:15:16;;;;;;;3.95;3.00;;;23.00;69.10;;;;;;4974855;28;20461;-77
2021/07/26 09:17:44;;;;;;;4.47;3.15;;;23.20;68.70;;;;;;4972610;28;20556;-77
2021/07/26 09:20:11;;;;;;;3.38;2.65;;;23.30;68.20;;;;;;4974666;28;20031;-77
2021/07/26 09:22:39;;;;;;;4.32;2.83;;;23.30;67.70;;;;;;4974363;28;20359;-77
2021/07/26 09:25:23;;;;;;;3.70;3.20;;;23.40;67.50;;;;;;4974403;28;20022;-77
2021/07/26 09:28:02;;;;;;;4.40;3.13;;;23.50;67.30;;;;;;4973817;28;20035;-77
2021/07/26 09:30:40;;;;;;;4.97;3.35;;;23.60;67.10;;;;;;4974230;28;20026;-77
2021/07/26 09:33:16;;;;;;;2.90;2.60;;;23.70;66.80;;;;;;4974244;28;20038;-77
2021/07/26 09:35:42;;;;;;;5.50;4.18;;;23.90;66.70;;;;;;4974076;28;20046;-77
2021/07/26 09:38:09;;;;;;;4.50;2.92;;;24.00;65.80;;;;;;4972594;28;20089;-77
2021/07/26 09:40:35;;;;;;;3.78;2.50;;;24.00;65.90;;;;;;4974199;28;20077;-77
2021/07/26 09:43:17;;;;;;;4.00;2.95;;;24.20;65.70;;;;;;4973679;28;20033;-77
2021/07/26 09:45:43;;;;;;;3.67;3.22;;;24.10;65.10;;;;;;4972314;28;20114;-77
2021/07/26 09:48:12;;;;;;;3.15;2.67;;;23.90;65.00;;;;;;4973830;28;20442;-77
2021/07/26 09:50:39;;;;;;;4.07;3.13;;;23.80;65.30;;;;;;4972603;28;20027;-77
2021/07/26 09:53:18;;;;;;;3.17;2.83;;;23.70;65.60;;;;;;4974145;28;20078;-77
2021/07/26 09:55:46;;;;;;;3.25;2.30;;;23.70;66.70;;;;;;4973368;28;20027;-77
2021/07/26 09:58:14;;;;;;;7.40;2.10;;;23.80;66.00;;;;;;4973820;28;20081;-76
2021/07/26 10:00:40;;;;;;;2.22;1.88;;;23.90;65.80;;;;;;4973862;28;20015;-76
2021/07/26 10:03:08;;;;;;;2.58;2.38;;;24.10;65.50;;;;;;4973743;28;20099;-76
2021/07/26 10:05:34;;;;;;;4.57;2.17;;;24.00;64.70;;;;;;4973124;28;20014;-77
2021/07/26 10:08:02;;;;;;;1.85;1.73;;;23.90;64.70;;;;;;4973119;28;20030;-76
2021/07/26 10:10:28;;;;;;;2.25;1.90;;;24.00;64.80;;;;;;4972589;28;20023;-76
2021/07/26 10:12:54;;;;;;;2.92;2.30;;;24.10;64.80;;;;;;4973813;28;20054;-76
2021/07/26 10:15:20;;;;;;;2.03;1.83;;;24.10;64.80;;;;;;4973511;28;20466;-76
2021/07/26 10:17:47;;;;;;;4.10;1.75;;;24.20;64.80;;;;;;4972895;28;20046;-76
2021/07/26 10:20:20;;;;;;;1.83;1.70;;;24.30;64.70;;;;;;4973404;28;20524;-75
2021/07/26 10:22:55;;;;;;;1.73;1.63;;;24.40;64.60;;;;;;4973243;28;20075;-76
2021/07/26 10:25:47;;;;;;;3.42;2.00;;;24.60;64.30;;;;;;4973223;28;20370;-76
2021/07/26 10:28:33;;;;;;;1.45;1.17;;;24.70;63.80;;;;;;4972158;28;20038;-75
2021/07/26 10:30:59;;;;;;;2.30;2.10;;;24.80;63.70;;;;;;4973389;28;20030;-76
2021/07/26 10:33:24;;;;;;;2.78;2.20;;;24.60;63.40;;;;;;4973112;28;20031;-76
2021/07/26 10:35:55;;;;;;;2.78;2.45;;;24.50;62.60;;;;;;4972490;28;20106;-75
2021/07/26 10:38:43;;;;;;;2.33;1.80;;;24.50;62.80;;;;;;4973377;28;20045;-76
2021/07/26 10:41:08;;;;;;;2.67;2.25;;;24.70;62.70;;;;;;4973081;28;20366;-76
2021/07/26 10:43:54;;;;;;;2.60;2.20;;;24.70;61.80;;;;;;4973171;28;20161;-76
2021/07/26 10:46:20;;;;;;;2.80;2.35;;;24.70;61.70;;;;;;4972369;28;20034;-76
2021/07/26 10:48:50;;;;;;;2.25;1.95;;;24.50;61.40;;;;;;4973156;28;20018;-76
2021/07/26 10:51:36;;;;;;;3.42;2.80;;;24.50;62.00;;;;;;4972946;28;20078;-76
2021/07/26 10:54:02;;;;;;;2.90;2.20;;;24.40;61.50;;;;;;4971017;28;20461;-76
2021/07/26 10:56:27;;;;;;;2.50;2.25;;;24.30;61.70;;;;;;4972238;28;20054;-76
2021/07/26 10:59:01;;;;;;;3.17;2.50;;;24.30;61.60;;;;;;4972715;28;20118;-76
2021/07/26 11:01:27;;;;;;;2.90;2.45;;;24.30;61.30;;;;;;4971528;28;20023;-76
2021/07/26 11:03:56;;;;;;;2.50;2.30;;;24.20;61.40;;;;;;4972742;28;20031;-76
2021/07/26 11:06:51;;;;;;;3.13;2.30;;;24.20;61.40;;;;;;4972242;28;20497;-76
2021/07/26 11:09:32;;;;;;;2.25;1.98;;;24.20;61.40;;;;;;4971943;28;20034;-77
2021/07/26 11:11:59;;;;;;;3.22;2.10;;;24.40;61.30;;;;;;4972710;28;20101;-76
2021/07/26 11:14:24;;;;;;;2.53;2.10;;;24.40;60.90;;;;;;4972624;28;20030;-76
2021/07/26 11:17:23;;;;;;;2.83;2.40;;;24.40;60.70;;;;;;4970728;28;20026;-77
2021/07/26 11:19:41;;;;;;;2.83;2.17;;;24.30;60.60;;;;;;4974207;28;20121;-76
2021/07/26 11:22:27;;;;;;;2.85;2.20;;;24.30;60.30;;;;;;4971271;28;20380;-76
2021/07/26 11:24:54;;;;;;;3.00;1.63;;;24.30;60.20;;;;;;4972544;28;20550;-76
2021/07/26 11:27:22;;;;;;;2.40;2.20;;;24.40;60.40;;;;;;4972164;28;20023;-76
2021/07/26 11:29:53;;;;;;;1.52;1.42;;;24.40;59.90;;;;;;4972575;28;20027;-76
2021/07/26 11:32:21;;;;;;;2.60;1.40;;;24.50;60.20;;;;;;4972309;28;20573;-76
2021/07/26 11:34:56;;;;;;;1.60;1.50;;;24.60;60.10;;;;;;4972193;28;20481;-76
2021/07/26 11:37:31;;;;;;;2.13;1.38;;;24.80;59.50;;;;;;4971765;28;20038;-76
2021/07/26 11:39:59;;;;;;;1.75;1.42;;;24.90;59.00;;;;;;4972728;28;20034;-76
2021/07/26 11:42:26;;;;;;;2.38;1.40;;;25.00;58.30;;;;;;4972460;28;20200;-76
2021/07/26 11:44:52;;;;;;;2.33;1.45;;;25.20;58.20;;;;;;4972433;28;20490;-76
2021/07/26 11:47:43;;;;;;;1.20;1.00;;;25.30;57.70;;;;;;4972121;28;20485;-76
2021/07/26 11:50:08;;;;;;;3.75;1.20;;;25.50;57.80;;;;;;4972348;28;20590;-76
2021/07/26 11:52:34;;;;;;;1.38;1.27;;;25.50;56.90;;;;;;4972321;28;20027;-76
2021/07/26 11:54:59;;;;;;;3.13;1.88;;;25.40;57.00;;;;;;4972362;28;20027;-76
2021/07/26 11:57:25;;;;;;;1.40;1.30;;;25.20;56.40;;;;;;4971977;28;20047;-76
2021/07/26 11:59:55;;;;;;;1.30;1.20;;;25.10;56.60;;;;;;4972407;28;20478;-77
2021/07/26 12:02:37;;;;;;;1.08;1.00;;;25.10;57.30;;;;;;4972627;28;20018;-77
2021/07/26 12:05:07;;;;;;;2.17;1.65;;;25.20;57.60;;;;;;4973457;28;20019;-77
2021/07/26 12:07:42;;;;;;;3.33;1.55;;;25.30;56.70;;;;;;4973941;28;20429;-77
2021/07/26 12:10:16;;;;;;;1.60;1.40;;;25.50;56.30;;;;;;4976034;28;20042;-77
2021/07/26 12:12:45;;;;;;;2.30;1.70;;;25.60;56.40;;;;;;4975717;28;20508;-76
2021/07/26 12:15:29;;;;;;;1.90;1.50;;;25.60;56.00;;;;;;4974642;28;20038;-77
2021/07/26 12:18:09;;;;;;;2.75;1.50;;;25.70;55.90;;;;;;4973869;28;20031;-77
2021/07/26 12:20:37;;;;;;;1.55;1.45;;;25.70;56.00;;;;;;4975542;28;20101;-77
2021/07/26 12:23:19;;;;;;;3.50;1.60;;;26.00;55.80;;;;;;4975659;28;20022;-77
2021/07/26 12:25:49;;;;;;;2.55;1.77;;;26.10;55.50;;;;;;4975271;28;20034;-77
2021/07/26 12:28:16;;;;;;;1.90;1.70;;;26.10;54.90;;;;;;4975550;28;20381;-77
2021/07/26 12:30:44;;;;;;;3.85;1.88;;;26.10;54.70;;;;;;4975342;28;20026;-79
2021/07/26 12:33:12;;;;;;;2.22;1.65;;;25.90;54.90;;;;;;4975599;28;20098;-76
2021/07/26 12:35:38;;;;;;;2.42;1.80;;;25.80;55.50;;;;;;4973914;28;20106;-77
2021/07/26 12:38:20;;;;;;;1.50;1.40;;;25.70;55.60;;;;;;4974377;28;20038;-76
2021/07/26 12:40:49;;;;;;;2.33;1.77;;;25.90;55.90;;;;;;4973650;28;20107;-77
2021/07/26 12:43:18;;;;;;;2.95;2.13;;;25.90;55.60;;;;;;4975326;28;20042;-77
2021/07/26 12:46:01;;;;;;;1.88;1.30;;;25.80;55.50;;;;;;4974779;28;20033;-76
2021/07/26 12:48:29;;;;;;;2.65;2.03;;;25.70;55.90;;;;;;4975743;28;20037;-76
2021/07/26 12:50:55;;;;;;;2.33;1.55;;;25.70;55.70;;;;;;4975022;28;20027;-76
2021/07/26 12:53:22;;;;;;;3.13;1.90;;;25.80;56.00;;;;;;4975062;28;20105;-76
2021/07/26 12:55:48;;;;;;;2.78;1.70;;;25.90;55.70;;;;;;4973266;28;20507;-76